St Petersburg Clearwater International Airport
KPIE : now visible

Airfield :











YOU CAN JOIN US ON...

 
LOGIN :

Register | Disclaimer

   EN    FR    IT 

 









Legend :    VFR   Marginal VFR   IFR   Intensive IFR   Very Intensive IFR
Visi :
Ceiling :
>= 8 km
>= 3000ft
5 to 8 km
1000 to 3000 ft
1500m to 5 km
500 to 1000 ft
800 to 1500m
200 to 500 ft
< 800m
< 200 ft
Symbols :   Thunderstorms  Fog  Heavy snow  Heavy precipitations  Wind > 20 kt






- Airport Elevation : 11 ft
- IATA code : PIE


KPIE - St Petersburg Clearwater International

CURRENT METAR :
  • 061953Z AUTO 04005KT 10SM CLR 22/09 A3015 RMK AO2 SLP208 T02170089

EXPIRED METARs :
  • 061853Z 08005KT 10SM CLR 21/09 A3014 RMK AO2 SLP207 T02110089
  • 061753Z 06006KT 10SM CLR 21/06 A3016 RMK AO2 SLP213 60000 T02110061 10211 20111 58021

TAF KPIE
Valid from the 06 at 18:00 until the 07 at 18:00 UTC


061721Z 0618/0718 04004KT P6SM FEW250
FM062000 29007KT P6SM FEW250
FM070000 VRB03KT P6SM SKC
FM071500 05005KT P6SM SCT100 SCT250



MET'MAP, your aeronautical weather chart ! - Copyright ORBIFLY December 2007 - Disclaimer

ORBIFLY MET'MAP TEAM :

Programming & Development : Alexandra Zaïnal
Concept & original design : Baudouin d'Aumeries
Assistance for programming : Marc-Olivier Méhu
Technical & hardware support : Manuel Goepfert

Contact : metmap@orbifly.com




SOURCES & CREDITS :

   NOAA       Earth
Advisory